Time;durP1;ratioP1;P1;durP2;ratioP2;P2;SDS_P1;SDS_P2;PMS_P1;PMS_P2;Temp;Humidity;BMP_temperature;BMP_pressure;BME280_temperature;BME280_humidity;BME280_pressure;Samples;Min_cycle;Max_cycle;Signal;HPM_P1;HPM_P2
2022/05/27 00:00:42;;;;;;;7.43;3.65;;;;;;;19.56;76.99;95301.75;5068969;28;20224;-76
2022/05/27 00:03:20;;;;;;;4.15;3.42;;;;;;;19.62;76.53;95292.78;5069079;28;20756;-76
2022/05/27 00:05:55;;;;;;;7.55;3.13;;;;;;;19.58;76.41;95303.06;5068747;28;20570;-76
2022/05/27 00:08:28;;;;;;;6.43;3.42;;;;;;;19.61;76.42;95302.53;5066070;28;20646;-76
2022/05/27 00:11:02;;;;;;;7.47;4.07;;;;;;;19.60;76.44;95300.16;5069006;28;20791;-75
2022/05/27 00:13:33;;;;;;;6.50;3.55;;;;;;;19.57;76.72;95309.38;5069081;28;20208;-76
2022/05/27 00:16:04;;;;;;;7.05;3.53;;;;;;;19.63;76.27;95313.63;5069867;28;20251;-75
2022/05/27 00:18:33;;;;;;;6.38;4.20;;;;;;;19.65;75.36;95302.84;5070840;28;20683;-76
2022/05/27 00:21:05;;;;;;;9.55;3.47;;;;;;;19.71;75.53;95304.44;5068946;28;20201;-76
2022/05/27 00:23:38;;;;;;;6.60;3.60;;;;;;;19.68;75.68;95310.22;5068717;28;20566;-78
2022/05/27 00:26:18;;;;;;;7.43;3.55;;;;;;;19.66;75.66;95312.31;5068801;28;20271;-78
2022/05/27 00:28:51;;;;;;;6.32;3.35;;;;;;;19.70;75.43;95308.13;5068928;28;20296;-78
2022/05/27 00:31:25;;;;;;;10.38;4.28;;;;;;;19.75;74.80;95303.66;5069416;28;20247;-77
2022/05/27 00:33:56;;;;;;;7.00;3.30;;;;;;;19.78;74.70;95299.69;5066200;28;20206;-78
2022/05/27 00:36:30;;;;;;;6.22;3.28;;;;;;;19.81;74.25;95291.28;5068550;28;20227;-74
2022/05/27 00:39:04;;;;;;;7.75;3.50;;;;;;;19.75;74.62;95287.81;5068100;28;20302;-74
2022/05/27 00:41:35;;;;;;;8.73;3.38;;;;;;;19.85;73.99;95287.06;5069484;28;20217;-74
2022/05/27 00:44:11;;;;;;;4.53;3.55;;;;;;;19.83;73.60;95289.16;5046967;28;20547;-75
2022/05/27 00:46:46;;;;;;;9.18;3.70;;;;;;;19.77;74.33;95288.34;5050291;28;20209;-74
2022/05/27 00:49:26;;;;;;;9.93;3.60;;;;;;;19.78;74.21;95294.44;5048823;28;20205;-75
2022/05/27 00:52:05;;;;;;;9.30;3.67;;;;;;;19.85;73.83;95286.28;5046962;28;20205;-75
2022/05/27 00:54:38;;;;;;;10.02;3.78;;;;;;;19.86;73.25;95291.28;5047931;28;20210;-75
2022/05/27 00:57:14;;;;;;;6.25;3.67;;;;;;;19.89;73.32;95295.25;5048502;28;20279;-75
2022/05/27 00:59:53;;;;;;;6.75;3.60;;;;;;;19.89;72.69;95288.13;5046468;28;20275;-75
2022/05/27 01:02:25;;;;;;;9.40;3.65;;;;;;;19.89;72.45;95289.97;5044425;28;20208;-75
2022/05/27 01:04:58;;;;;;;9.38;3.28;;;;;;;19.92;72.39;95292.88;5045630;28;20202;-75
2022/05/27 01:07:33;;;;;;;6.30;3.80;;;;;;;19.95;72.11;95283.66;5044829;28;20210;-75
2022/05/27 01:10:14;;;;;;;4.68;3.35;;;;;;;19.99;71.81;95292.63;5042928;28;20206;-75
2022/05/27 01:13:09;;;;;;;7.68;3.50;;;;;;;19.78;72.04;95287.31;5044961;28;20284;-76
2022/05/27 01:15:51;;;;;;;10.98;3.63;;;;;;;19.71;72.87;95292.03;5045551;28;20279;-76
2022/05/27 01:21:27;;;;;;;5.53;3.22;;;;;;;19.77;72.12;95277.78;5043793;28;20206;-76
2022/05/27 01:24:39;;;;;;;8.52;3.50;;;;;;;19.73;72.35;95271.47;5044058;28;20194;-75
2022/05/27 01:27:44;;;;;;;7.57;3.67;;;;;;;19.82;71.67;95274.41;5041816;28;20591;-76
2022/05/27 01:30:34;;;;;;;6.75;3.42;;;;;;;19.80;71.87;95274.63;5045486;28;20213;-76
2022/05/27 01:33:22;;;;;;;6.18;3.90;;;;;;;19.79;72.55;95264.34;5043770;28;20705;-76
2022/05/27 01:36:05;;;;;;;8.18;3.65;;;;;;;19.79;73.33;95259.09;5045429;28;20226;-77
2022/05/27 01:38:44;;;;;;;8.13;3.95;;;;;;;19.79;72.86;95267.00;5045297;28;20321;-77
2022/05/27 01:41:28;;;;;;;5.95;3.80;;;;;;;19.77;72.77;95277.00;5045100;28;20255;-77
2022/05/27 01:44:02;;;;;;;6.90;3.40;;;;;;;19.78;72.21;95268.03;5063232;28;20298;-77
2022/05/27 01:46:39;;;;;;;6.20;3.78;;;;;;;19.72;71.51;95259.31;5065662;28;20197;-77
2022/05/27 01:49:20;;;;;;;7.40;3.80;;;;;;;19.72;71.15;95263.81;5067323;28;20204;-77
2022/05/27 01:51:58;;;;;;;5.95;3.72;;;;;;;19.71;71.33;95270.16;5066852;28;20648;-78
2022/05/27 01:54:40;;;;;;;8.82;3.72;;;;;;;19.57;71.42;95256.63;5064002;28;20205;-77
2022/05/27 01:57:14;;;;;;;8.35;3.88;;;;;;;19.60;70.80;95256.13;5065032;28;21638;-77
2022/05/27 02:00:07;;;;;;;5.82;4.10;;;;;;;19.65;71.25;95253.47;5064655;28;20298;-76
2022/05/27 02:02:48;;;;;;;6.85;3.90;;;;;;;19.64;72.09;95265.09;5063558;28;20233;-77
2022/05/27 02:05:23;;;;;;;7.68;3.72;;;;;;;19.67;71.68;95263.78;5065061;28;20672;-76
2022/05/27 02:07:58;;;;;;;7.43;4.20;;;;;;;19.67;71.57;95264.59;5061026;28;20211;-76
2022/05/27 02:10:37;;;;;;;10.40;4.05;;;;;;;19.66;71.92;95264.84;5061962;28;20205;-77
2022/05/27 02:13:14;;;;;;;7.85;4.15;;;;;;;19.62;71.92;95267.22;5063463;28;20239;-77
2022/05/27 02:15:47;;;;;;;9.85;4.07;;;;;;;19.61;71.51;95257.72;5065399;28;20248;-77
2022/05/27 02:18:24;;;;;;;8.15;3.78;;;;;;;19.60;71.84;95257.94;5064483;28;20298;-76
2022/05/27 02:21:03;;;;;;;10.00;4.22;;;;;;;19.58;72.27;95254.78;5063671;28;20296;-76
2022/05/27 02:23:38;;;;;;;11.63;4.28;;;;;;;19.55;72.71;95271.94;5063275;28;20201;-76
2022/05/27 02:26:16;;;;;;;6.60;4.22;;;;;;;19.50;73.35;95258.72;5066307;28;20208;-78
2022/05/27 02:28:54;;;;;;;14.10;4.28;;;;;;;19.54;73.52;95272.16;5066906;28;20209;-78
2022/05/27 02:31:34;;;;;;;9.90;3.80;;;;;;;19.50;73.62;95260.56;5065208;28;20201;-78
2022/05/27 02:37:02;;;;;;;11.20;3.92;;;;;;;19.42;73.87;95274.25;5062722;28;20228;-77
2022/05/27 02:39:31;;;;;;;9.93;4.10;;;;;;;19.34;74.10;95272.06;5063331;28;20209;-78
2022/05/27 02:42:10;;;;;;;8.90;4.20;;;;;;;19.21;75.72;95270.69;5061728;28;21020;-77
2022/05/27 02:44:51;;;;;;;6.72;4.32;;;;;;;19.19;76.78;95273.56;5063196;28;20223;-77
2022/05/27 02:47:32;;;;;;;11.55;4.90;;;;;;;19.18;77.52;95265.94;5060703;28;20588;-78
2022/05/27 02:50:16;;;;;;;10.23;4.85;;;;;;;19.17;78.16;95267.78;5064088;28;20201;-77
2022/05/27 02:52:59;;;;;;;11.45;4.80;;;;;;;19.14;78.58;95273.56;5063825;28;20211;-77
2022/05/27 02:55:41;;;;;;;10.90;4.88;;;;;;;19.15;79.01;95274.34;5061135;28;20224;-77
2022/05/27 02:58:14;;;;;;;14.18;5.22;;;;;;;19.04;79.48;95262.97;5063821;28;20205;-78
2022/05/27 03:00:51;;;;;;;6.78;4.82;;;;;;;18.98;80.00;95271.09;5063892;28;20213;-77
2022/05/27 03:03:22;;;;;;;7.90;4.82;;;;;;;18.91;80.54;95267.88;5058861;28;20211;-77
2022/05/27 03:06:05;;;;;;;12.40;5.30;;;;;;;18.91;80.74;95271.31;5062554;28;20205;-77
2022/05/27 03:08:44;;;;;;;10.32;5.20;;;;;;;18.86;81.12;95268.66;5064539;28;20205;-77
2022/05/27 03:11:27;;;;;;;13.40;5.70;;;;;;;18.77;81.78;95270.16;5065230;28;20205;-77
2022/05/27 03:14:29;;;;;;;8.65;5.35;;;;;;;18.74;81.92;95273.31;5063965;28;20204;-78
2022/05/27 03:17:19;;;;;;;10.77;5.57;;;;;;;18.76;81.42;95270.44;5064678;28;20221;-77
2022/05/27 03:20:08;;;;;;;12.35;5.30;;;;;;;18.64;82.13;95263.47;5065242;28;20232;-79
2022/05/27 03:22:53;;;;;;;13.00;5.65;;;;;;;18.67;82.42;95273.50;5063871;28;20229;-76
2022/05/27 03:25:33;;;;;;;8.30;5.70;;;;;;;18.74;82.21;95281.19;5064145;28;20208;-76
2022/05/27 03:28:12;;;;;;;9.60;5.55;;;;;;;18.68;82.67;95274.31;5063500;28;20854;-76
2022/05/27 03:30:54;;;;;;;11.85;5.60;;;;;;;18.69;83.00;95278.53;5062529;28;20209;-76
2022/05/27 03:33:31;;;;;;;12.15;5.63;;;;;;;18.75;82.80;95284.63;5060555;28;20205;-76
2022/05/27 03:36:08;;;;;;;12.32;5.63;;;;;;;18.77;82.34;95282.53;5062409;28;20217;-76
2022/05/27 03:38:48;;;;;;;10.98;6.07;;;;;;;18.76;82.59;95278.34;5062453;28;20201;-76
2022/05/27 03:41:23;;;;;;;10.63;5.85;;;;;;;18.66;83.03;95281.69;5062946;28;20207;-77
2022/05/27 03:43:55;;;;;;;9.38;6.07;;;;;;;18.60;82.81;95272.94;5062614;28;20328;-76
2022/05/27 03:46:36;;;;;;;10.45;5.90;;;;;;;18.57;82.66;95267.38;5060106;28;20193;-76
2022/05/27 03:49:08;;;;;;;11.10;6.50;;;;;;;18.59;82.77;95274.00;5062508;28;20256;-76
2022/05/27 03:51:46;;;;;;;9.85;6.47;;;;;;;18.59;82.90;95268.72;5060457;28;20278;-76
2022/05/27 03:54:21;;;;;;;12.55;6.45;;;;;;;18.61;82.77;95277.16;5062030;28;20213;-76
2022/05/27 03:56:54;;;;;;;15.60;6.22;;;;;;;18.61;83.45;95271.13;5060961;28;20217;-76
2022/05/27 03:59:27;;;;;;;12.35;5.95;;;;;;;18.57;84.00;95265.56;5063873;28;20228;-76
2022/05/27 04:02:02;;;;;;;10.52;5.80;;;;;;;18.66;84.22;95268.50;5055740;28;20193;-75
2022/05/27 04:04:32;;;;;;;17.15;6.43;;;;;;;18.71;83.97;95271.19;5056732;28;20213;-76
2022/05/27 04:07:05;;;;;;;15.57;6.80;;;;;;;18.77;82.88;95270.16;5061842;28;20204;-75
2022/05/27 04:09:44;;;;;;;14.70;5.82;;;;;;;18.81;82.97;95279.16;5062191;28;20237;-75
2022/05/27 04:12:23;;;;;;;15.10;6.07;;;;;;;18.84;82.67;95283.13;5062246;28;20216;-75
2022/05/27 04:14:56;;;;;;;12.30;5.85;;;;;;;18.87;81.79;95288.69;5059845;28;20933;-75
2022/05/27 04:17:35;;;;;;;15.48;6.53;;;;;;;18.89;81.24;95288.41;5058920;28;20257;-75
2022/05/27 04:20:12;;;;;;;11.23;5.68;;;;;;;18.84;81.54;95281.28;5061673;28;20303;-75
2022/05/27 04:22:44;;;;;;;11.85;6.65;;;;;;;18.84;81.63;95283.94;5062558;28;20240;-76
2022/05/27 04:25:18;;;;;;;15.75;6.10;;;;;;;18.88;81.43;95274.44;5062987;28;20219;-75
2022/05/27 04:27:51;;;;;;;11.75;5.65;;;;;;;18.95;81.04;95275.03;5064445;28;20198;-74
2022/05/27 04:30:23;;;;;;;13.60;6.20;;;;;;;18.95;81.34;95279.50;5062870;28;20288;-77
2022/05/27 04:32:56;;;;;;;10.52;6.18;;;;;;;19.00;81.34;95274.25;5060033;28;20201;-76
2022/05/27 04:35:25;;;;;;;14.60;7.18;;;;;;;19.03;81.56;95282.44;5058005;28;20580;-75
2022/05/27 04:37:57;;;;;;;18.73;7.35;;;;;;;19.03;81.63;95273.75;5065909;28;20676;-75
2022/05/27 04:40:35;;;;;;;15.65;6.75;;;;;;;19.02;81.71;95275.59;5063220;28;20201;-76
2022/05/27 04:43:11;;;;;;;11.32;7.53;;;;;;;19.03;81.84;95274.53;5065045;28;20264;-76
2022/05/27 04:45:44;;;;;;;9.38;5.97;;;;;;;18.99;81.93;95273.47;5065552;28;20210;-75
2022/05/27 04:48:17;;;;;;;11.15;5.78;;;;;;;19.02;81.77;95274.78;5065603;28;20220;-75
2022/05/27 04:50:47;;;;;;;12.00;5.47;;;;;;;19.02;81.43;95277.41;5067382;28;20294;-75
2022/05/27 04:53:19;;;;;;;13.95;5.78;;;;;;;19.07;81.08;95286.19;5066778;28;20577;-76
2022/05/27 04:55:57;;;;;;;11.15;6.38;;;;;;;19.08;81.18;95277.22;5065903;28;20739;-75
2022/05/27 04:58:31;;;;;;;20.15;6.03;;;;;;;19.12;81.17;95277.50;5063780;28;20688;-76
2022/05/27 05:01:03;;;;;;;19.13;6.20;;;;;;;19.18;81.01;95274.63;5064583;28;20296;-76
2022/05/27 05:03:38;;;;;;;11.18;6.18;;;;;;;19.20;80.68;95275.16;5065440;28;20241;-76
2022/05/27 05:06:11;;;;;;;20.73;6.85;;;;;;;19.14;80.12;95275.38;5064379;28;20208;-77
2022/05/27 05:08:46;;;;;;;16.30;6.60;;;;;;;19.18;80.78;95273.84;5065263;28;20940;-77
2022/05/27 05:11:23;;;;;;;10.48;6.15;;;;;;;19.20;80.70;95275.16;5056506;28;21265;-75
2022/05/27 05:13:56;;;;;;;11.63;6.10;;;;;;;19.06;80.33;95263.50;5060231;28;20205;-76
2022/05/27 05:16:28;;;;;;;19.88;6.13;;;;;;;19.10;80.49;95272.50;5058635;28;20778;-76
2022/05/27 05:18:57;;;;;;;8.95;5.78;;;;;;;19.13;81.10;95268.56;5063121;28;20676;-75
2022/05/27 05:21:29;;;;;;;15.05;6.47;;;;;;;19.22;81.39;95273.06;5060558;28;20213;-75
2022/05/27 05:24:00;;;;;;;13.27;5.80;;;;;;;19.23;82.28;95269.38;5060220;28;20601;-74
2022/05/27 05:26:39;;;;;;;12.20;5.63;;;;;;;19.31;82.20;95272.59;5059514;28;20216;-76
2022/05/27 05:29:08;;;;;;;13.32;5.40;;;;;;;19.30;82.93;95263.88;5057727;28;20593;-75
2022/05/27 05:31:37;;;;;;;13.07;5.75;;;;;;;19.26;82.01;95268.06;5064991;28;20237;-76
2022/05/27 05:34:14;;;;;;;16.85;7.40;;;;;;;19.24;82.47;95265.72;5065457;28;20219;-78
2022/05/27 05:36:46;;;;;;;17.15;6.65;;;;;;;19.24;82.55;95268.34;5057808;28;20633;-75
2022/05/27 05:39:16;;;;;;;16.13;7.35;;;;;;;19.33;82.21;95265.22;5065238;28;20219;-77
2022/05/27 05:42:01;;;;;;;19.58;8.05;;;;;;;19.40;82.48;95269.22;5066203;28;20280;-77
2022/05/27 05:44:42;;;;;;;16.23;6.90;;;;;;;19.52;82.20;95271.66;5065259;28;20201;-76
2022/05/27 05:47:18;;;;;;;13.77;6.50;;;;;;;19.59;81.52;95259.03;5066741;28;20689;-75
2022/05/27 05:49:47;;;;;;;11.93;5.05;;;;;;;19.68;77.97;95263.53;5066593;28;20216;-75
2022/05/27 05:52:21;;;;;;;14.73;5.30;;;;;;;19.69;76.60;95264.31;5064930;28;20205;-75
2022/05/27 05:54:55;;;;;;;12.02;5.05;;;;;;;19.63;76.74;95278.53;5064035;28;20871;-75
2022/05/27 05:57:25;;;;;;;11.35;5.75;;;;;;;19.57;78.23;95272.44;5064279;28;20366;-75
2022/05/27 05:59:56;;;;;;;9.50;5.63;;;;;;;19.67;76.22;95271.72;5065401;28;20292;-74
2022/05/27 06:02:27;;;;;;;9.98;4.53;;;;;;;19.62;75.22;95276.97;5064769;28;20656;-75
2022/05/27 06:04:56;;;;;;;7.70;4.55;;;;;;;19.62;75.51;95275.13;5062043;28;20221;-75
2022/05/27 06:07:25;;;;;;;19.73;9.23;;;;;;;19.63;75.35;95276.69;5065147;28;20205;-75
2022/05/27 06:09:57;;;;;;;7.57;4.07;;;;;;;19.60;74.21;95276.41;5067080;28;20209;-76
2022/05/27 06:12:31;;;;;;;11.40;5.00;;;;;;;19.68;74.14;95268.03;5065341;28;20620;-75
2022/05/27 06:15:04;;;;;;;12.00;5.05;;;;;;;19.76;74.78;95267.53;5063416;28;20197;-75
2022/05/27 06:17:38;;;;;;;11.93;5.40;;;;;;;19.77;75.71;95263.81;5063156;28;20335;-75
2022/05/27 06:20:12;;;;;;;14.27;5.00;;;;;;;19.86;75.78;95270.16;5064740;28;20204;-75
2022/05/27 06:22:45;;;;;;;9.70;5.38;;;;;;;19.96;75.17;95259.66;5064860;28;20216;-75
2022/05/27 06:25:21;;;;;;;8.90;4.68;;;;;;;19.99;74.61;95260.97;5062801;28;20205;-75
2022/05/27 06:34:23;;;;;;;11.05;4.68;;;;;;;20.11;73.93;95267.59;5064845;28;20197;-75
2022/05/27 06:36:22;;;;;;;11.13;4.57;;;;;;;20.39;73.74;95263.69;5063360;28;20250;-75
2022/05/27 06:38:56;;;;;;;16.02;4.93;;;;;;;20.46;73.40;95256.28;5062053;28;20237;-86
2022/05/27 06:41:28;;;;;;;10.23;5.10;;;;;;;20.58;73.09;95259.44;5063745;28;20262;-79
2022/05/27 06:44:02;;;;;;;22.58;5.88;;;;;;;20.72;72.96;95252.56;5063330;28;20237;-78
2022/05/27 06:46:36;;;;;;;29.05;6.85;;;;;;;20.88;72.25;95248.06;5064550;28;20279;-83
2022/05/27 06:49:08;;;;;;;24.92;5.22;;;;;;;20.93;70.90;95250.69;5048496;28;20197;-75
2022/05/27 06:51:41;;;;;;;118.90;11.68;;;;;;;21.03;70.45;95255.16;5062878;28;20567;-76
2022/05/27 06:54:17;;;;;;;39.72;8.30;;;;;;;21.08;68.95;95248.06;5063272;28;20267;-78
2022/05/27 06:56:52;;;;;;;13.07;5.55;;;;;;;21.20;67.62;95245.09;5063378;28;20280;-77
2022/05/27 06:59:28;;;;;;;11.60;5.07;;;;;;;21.28;66.64;95250.63;5061367;28;20663;-77
2022/05/27 07:02:00;;;;;;;12.90;5.38;;;;;;;21.31;66.64;95241.38;5060423;28;20212;-77
2022/05/27 07:04:32;;;;;;;10.98;5.70;;;;;;;21.39;67.42;95246.09;5059708;28;20691;-75
2022/05/27 07:07:06;;;;;;;11.23;4.18;;;;;;;21.34;65.24;95246.13;5063009;28;20281;-75
2022/05/27 07:09:39;;;;;;;42.03;6.93;;;;;;;21.34;64.97;95238.97;5063456;28;20189;-75
2022/05/27 07:12:20;;;;;;;11.68;4.40;;;;;;;21.35;65.00;95232.63;5064185;28;20194;-75
2022/05/27 07:14:59;;;;;;;7.60;4.30;;;;;;;21.52;63.79;95237.59;5065501;28;20198;-80
2022/05/27 07:17:29;;;;;;;9.57;3.88;;;;;;;21.51;63.47;95217.47;5065460;28;20259;-82
2022/05/27 07:20:01;;;;;;;9.88;4.22;;;;;;;21.52;63.13;95220.91;5065774;28;20248;-84
2022/05/27 07:22:34;;;;;;;13.07;3.63;;;;;;;21.50;62.68;95219.31;5065566;28;20205;-84
2022/05/27 07:25:09;;;;;;;12.20;4.47;;;;;;;21.58;62.50;95217.19;5064779;28;20194;-84
2022/05/27 07:27:38;;;;;;;41.00;6.88;;;;;;;21.73;62.29;95217.09;5066397;28;20204;-81
2022/05/27 07:30:14;;;;;;;21.30;5.20;;;;;;;21.82;63.15;95215.44;5065149;28;20280;-80
2022/05/27 07:32:43;;;;;;;17.55;4.68;;;;;;;22.01;69.16;95208.50;5064304;28;20258;-75
2022/05/27 07:35:12;;;;;;;14.88;4.50;;;;;;;22.04;62.99;95203.44;5062713;28;20201;-78
2022/05/27 07:37:46;;;;;;;20.38;4.47;;;;;;;22.14;62.10;95204.41;5064259;28;20310;-76
2022/05/27 07:40:15;;;;;;;26.13;7.32;;;;;;;22.23;61.93;95200.91;5063113;28;20205;-75
2022/05/27 07:42:48;;;;;;;19.73;6.90;;;;;;;22.34;61.20;95204.25;5055073;28;21039;-76
2022/05/27 07:45:26;;;;;;;14.13;6.75;;;;;;;22.41;61.20;95199.44;5048418;28;20201;-86
2022/05/27 07:47:59;;;;;;;16.30;7.25;;;;;;;22.48;60.61;95197.25;5043727;28;20292;-81
2022/05/27 07:50:31;;;;;;;18.27;5.90;;;;;;;22.47;60.25;95198.31;5045878;28;20641;-80
2022/05/27 07:53:01;;;;;;;12.18;4.22;;;;;;;22.51;59.82;95194.81;5046185;28;20194;-80
2022/05/27 07:55:35;;;;;;;8.85;4.38;;;;;;;22.59;59.91;95199.53;5048192;28;20209;-81
2022/05/27 07:58:07;;;;;;;10.70;4.45;;;;;;;22.67;60.32;95197.38;5046392;28;20256;-81
2022/05/27 08:00:42;;;;;;;6.90;4.03;;;;;;;22.72;59.76;95194.66;5040391;28;20206;-76
2022/05/27 08:03:17;;;;;;;6.88;4.68;;;;;;;22.78;59.31;95198.84;5047035;28;20263;-77
2022/05/27 08:05:55;;;;;;;24.08;5.60;;;;;;;22.87;59.67;95192.66;5042959;28;20251;-72
2022/05/27 08:08:26;;;;;;;31.65;12.40;;;;;;;22.97;59.72;95192.53;5041854;28;20284;-74
2022/05/27 08:11:03;;;;;;;23.48;7.93;;;;;;;23.06;58.31;95192.72;5047051;28;20289;-75
2022/05/27 08:13:42;;;;;;;10.38;3.88;;;;;;;23.15;57.83;95191.81;5043325;28;20248;-75
2022/05/27 08:16:18;;;;;;;20.50;6.47;;;;;;;23.20;58.24;95185.69;5042549;28;20251;-78
2022/05/27 08:18:51;;;;;;;20.95;4.75;;;;;;;23.26;58.23;95176.56;5044597;28;20219;-77
2022/05/27 08:21:24;;;;;;;44.10;6.78;;;;;;;23.39;58.31;95188.38;5047373;28;20202;-78
2022/05/27 08:24:01;;;;;;;16.20;4.50;;;;;;;23.50;57.81;95185.31;5049779;28;20206;-76
2022/05/27 08:26:32;;;;;;;47.40;7.38;;;;;;;23.55;57.46;95168.53;5042595;28;20201;-77
2022/05/27 08:29:14;;;;;;;14.35;4.72;;;;;;;23.67;56.72;95169.69;5048502;28;20205;-76
2022/05/27 08:31:47;;;;;;;7.80;4.38;;;;;;;23.65;55.48;95171.03;5047323;28;20198;-76
2022/05/27 08:39:56;;;;;;;8.15;4.68;;;;;;;23.80;55.67;95162.06;5045670;28;20612;-76
2022/05/27 08:42:38;;;;;;;15.40;4.65;;;;;;;23.86;55.17;95161.72;5054289;28;20660;-77
2022/05/27 08:45:17;;;;;;;18.02;6.50;;;;;;;23.91;55.67;95158.19;5065324;28;20626;-76
2022/05/27 08:47:56;;;;;;;8.25;4.50;;;;;;;24.09;53.86;95155.53;5066053;28;20196;-80
2022/05/27 08:50:32;;;;;;;13.10;4.35;;;;;;;24.11;54.10;95153.38;5063611;28;20299;-76
2022/05/27 08:53:18;;;;;;;14.63;4.90;;;;;;;24.15;54.14;95146.44;5061896;28;20283;-76
2022/05/27 09:01:40;;;;;;;13.82;4.50;;;;;;;24.43;53.37;95149.13;5066172;28;20247;-77
2022/05/27 09:04:25;;;;;;;9.05;4.80;;;;;;;24.46;54.14;95141.38;5065572;28;20660;-77
2022/05/27 09:07:07;;;;;;;11.75;4.60;;;;;;;24.50;54.69;95145.00;5065136;28;20838;-78
2022/05/27 09:09:41;;;;;;;11.40;4.28;;;;;;;24.61;54.46;95146.44;5066036;28;20201;-81
2022/05/27 09:12:40;;;;;;;16.40;4.70;;;;;;;24.77;53.68;95144.25;5065165;28;20213;-76
2022/05/27 09:15:27;;;;;;;12.75;4.55;;;;;;;24.86;52.60;95136.41;5065871;28;20209;-75
2022/05/27 09:18:16;;;;;;;26.92;13.57;;;;;;;25.01;52.96;95136.13;5066156;28;20291;-76
2022/05/27 09:21:02;;;;;;;12.73;7.88;;;;;;;25.14;52.40;95136.13;5061247;28;20212;-77
2022/05/27 09:24:06;;;;;;;14.30;8.90;;;;;;;25.28;51.86;95130.78;5065682;28;20296;-79
2022/05/27 09:26:44;;;;;;;12.45;5.20;;;;;;;25.43;52.14;95122.47;5065954;28;20204;-78
2022/05/27 09:29:31;;;;;;;10.60;4.85;;;;;;;25.60;51.78;95129.88;5066989;28;20197;-78
2022/05/27 09:32:09;;;;;;;12.65;5.55;;;;;;;25.72;50.77;95116.78;5064736;28;20240;-78
2022/05/27 09:34:44;;;;;;;10.90;4.72;;;;;;;25.86;50.91;95110.31;5064621;28;20220;-76
2022/05/27 09:37:26;;;;;;;10.52;4.65;;;;;;;26.06;50.42;95114.38;5068317;28;20213;-83
2022/05/27 09:40:03;;;;;;;16.02;6.25;;;;;;;26.26;49.99;95116.56;5066579;28;20676;-82
2022/05/27 09:42:41;;;;;;;7.80;4.38;;;;;;;26.36;49.93;95110.22;5068515;28;20236;-82
2022/05/27 09:45:16;;;;;;;10.00;4.85;;;;;;;26.49;49.72;95102.13;5069787;28;20225;-82
2022/05/27 09:47:50;;;;;;;8.35;4.22;;;;;;;26.59;49.05;95106.41;5068830;28;20239;-81
2022/05/27 09:50:29;;;;;;;10.18;4.82;;;;;;;26.61;48.38;95092.78;5066053;28;20258;-81
2022/05/27 09:53:06;;;;;;;11.75;5.30;;;;;;;26.66;48.67;95092.63;5065386;28;20316;-82
2022/05/27 09:55:44;;;;;;;13.57;4.72;;;;;;;26.64;48.38;95095.59;5067733;28;20209;-82
2022/05/27 09:58:24;;;;;;;5.90;4.00;;;;;;;26.76;47.94;95092.34;5067874;28;20229;-82
2022/05/27 10:00:59;;;;;;;9.27;4.13;;;;;;;26.81;48.13;95077.00;5065143;28;20193;-82
2022/05/27 10:03:37;;;;;;;7.22;4.10;;;;;;;27.03;47.85;95089.47;5065562;28;20684;-82
2022/05/27 10:06:10;;;;;;;12.93;4.43;;;;;;;27.19;47.98;95079.13;5067962;28;20623;-83
2022/05/27 10:08:57;;;;;;;8.48;3.95;;;;;;;27.35;47.25;95070.38;5065580;28;21156;-83
2022/05/27 10:11:33;;;;;;;14.07;4.20;;;;;;;27.59;45.78;95081.41;5064198;28;20205;-82
2022/05/27 10:14:19;;;;;;;8.93;4.18;;;;;;;27.78;44.87;95075.75;5067538;28;20214;-82
2022/05/27 10:17:09;;;;;;;11.35;4.85;;;;;;;27.98;43.05;95075.09;5065587;28;20258;-82
2022/05/27 10:19:45;;;;;;;16.58;5.03;;;;;;;28.09;43.20;95062.22;5067337;28;20221;-82
2022/05/27 10:22:25;;;;;;;21.85;8.98;;;;;;;28.35;43.08;95062.94;5068998;28;20197;-82
2022/05/27 10:25:07;;;;;;;12.98;4.30;;;;;;;28.46;41.95;95045.44;5067407;28;20284;-83
2022/05/27 10:27:39;;;;;;;13.45;4.05;;;;;;;28.59;41.65;95052.47;5068568;28;20213;-82
2022/05/27 10:30:23;;;;;;;72.93;17.67;;;;;;;28.88;42.88;95049.06;5062261;28;20281;-83
2022/05/27 10:32:56;;;;;;;12.35;4.53;;;;;;;29.06;40.93;95053.19;5064448;28;20193;-82
2022/05/27 10:35:39;;;;;;;12.25;3.60;;;;;;;28.99;39.38;95052.94;5064219;28;20223;-83
2022/05/27 10:38:42;;;;;;;11.45;5.35;;;;;;;29.18;40.35;95042.56;5065696;28;20275;-83
2022/05/27 10:41:24;;;;;;;9.70;3.70;;;;;;;29.38;38.40;95042.94;5065414;28;20932;-83
2022/05/27 10:44:14;;;;;;;10.27;4.10;;;;;;;29.28;38.95;95044.09;5064435;28;20590;-83
2022/05/27 10:46:54;;;;;;;10.60;3.50;;;;;;;29.39;37.59;95034.56;5065090;28;20342;-82
2022/05/27 10:50:00;;;;;;;10.65;3.75;;;;;;;29.74;36.98;95030.50;5063168;28;20604;-78
2022/05/27 10:52:50;;;;;;;9.82;3.67;;;;;;;30.05;35.24;95035.41;5062942;28;20201;-79
2022/05/27 10:55:27;;;;;;;9.80;3.78;;;;;;;30.19;35.37;95033.22;5061900;28;20236;-79
2022/05/27 11:04:50;;;;;;;12.85;3.60;;;;;;;30.55;35.08;95013.72;5065234;28;20278;-78
2022/05/27 11:07:34;;;;;;;14.07;4.10;;;;;;;30.78;35.13;95014.84;5051152;28;20209;-77
2022/05/27 11:10:19;;;;;;;10.82;4.10;;;;;;;30.85;35.13;95011.59;5065427;28;20272;-78
2022/05/27 11:16:01;;;;;;;12.60;3.85;;;;;;;31.03;34.33;95007.56;5064263;28;20212;-76
2022/05/27 11:18:43;;;;;;;10.88;3.70;;;;;;;31.07;34.07;94991.56;5065778;28;20221;-77
2022/05/27 11:21:39;;;;;;;7.80;3.58;;;;;;;30.97;33.45;94983.97;5064459;28;20593;-79
2022/05/27 11:24:47;;;;;;;6.78;3.40;;;;;;;30.62;34.02;94992.47;5065411;28;20228;-78
2022/05/27 11:27:33;;;;;;;18.55;4.78;;;;;;;30.91;35.25;94988.75;5026049;28;20217;-78
2022/05/27 11:30:20;;;;;;;11.85;3.92;;;;;;;31.19;35.29;94973.53;5064353;28;20652;-78
2022/05/27 11:33:07;;;;;;;10.68;3.65;;;;;;;31.56;33.49;94962.66;5066361;28;20200;-77
2022/05/27 11:36:10;;;;;;;10.13;3.70;;;;;;;31.70;33.15;94973.78;5066515;28;20220;-78
2022/05/27 11:39:10;;;;;;;10.90;5.40;;;;;;;31.88;33.12;94956.22;5065785;28;20228;-78
2022/05/27 11:41:52;;;;;;;8.80;4.45;;;;;;;32.18;33.21;94962.78;5064411;28;20217;-79
2022/05/27 11:44:33;;;;;;;14.10;5.03;;;;;;;32.22;33.38;94957.47;5042910;28;20288;-79
2022/05/27 11:47:36;;;;;;;10.02;4.20;;;;;;;32.29;32.03;94952.28;5046189;28;20291;-79
2022/05/27 11:50:26;;;;;;;9.93;4.80;;;;;;;32.25;32.76;94954.88;5044315;28;20664;-78
2022/05/27 11:53:13;;;;;;;11.93;5.65;;;;;;;32.30;32.79;94938.47;5042765;28;20206;-78
2022/05/27 11:56:02;;;;;;;8.27;3.65;;;;;;;32.48;31.89;94936.19;5046158;28;20213;-77
2022/05/27 11:58:45;;;;;;;16.50;4.68;;;;;;;32.41;32.53;94934.13;5043517;28;20244;-77
2022/05/27 12:01:27;;;;;;;15.52;4.32;;;;;;;32.58;32.70;94936.47;5046901;28;20847;-78
2022/05/27 12:04:12;;;;;;;11.02;4.05;;;;;;;32.34;32.54;94928.59;5045762;28;20267;-78
2022/05/27 12:06:54;;;;;;;14.30;4.25;;;;;;;32.35;32.57;94930.13;5043647;28;20356;-78
2022/05/27 12:09:35;;;;;;;12.38;4.57;;;;;;;32.41;32.51;94926.03;5039493;28;20198;-78
2022/05/27 12:12:12;;;;;;;13.65;4.32;;;;;;;32.61;32.60;94910.78;5043144;28;20680;-77
2022/05/27 12:14:52;;;;;;;15.15;4.13;;;;;;;32.83;31.95;94912.78;5042905;28;20883;-76
2022/05/27 12:17:27;;;;;;;11.73;3.95;;;;;;;32.67;31.75;94895.13;5044469;28;20723;-81
2022/05/27 12:20:03;;;;;;;17.63;4.05;;;;;;;32.91;31.14;94906.41;5043251;28;20935;-79
2022/05/27 12:22:40;;;;;;;13.57;3.90;;;;;;;32.94;31.28;94900.31;5040735;28;20204;-77
2022/05/27 12:25:16;;;;;;;21.73;5.53;;;;;;;33.18;31.10;94898.53;5043062;28;20650;-80
2022/05/27 12:27:52;;;;;;;23.40;4.70;;;;;;;33.19;31.08;94892.75;5043259;28;20203;-85
2022/05/27 12:30:34;;;;;;;20.27;4.65;;;;;;;33.13;30.52;94891.50;5042819;28;20236;-84
2022/05/27 12:33:04;;;;;;;19.15;4.78;;;;;;;33.16;30.72;94890.00;5043015;28;20289;-85
2022/05/27 12:36:01;;;;;;;19.48;5.00;;;;;;;33.28;30.24;94887.94;5046108;28;20194;-85
2022/05/27 12:38:38;;;;;;;18.45;5.28;;;;;;;33.57;30.07;94887.34;5045306;28;20210;-86
2022/05/27 12:41:12;;;;;;;14.63;4.25;;;;;;;34.04;29.27;94888.94;5043665;28;20201;-82
2022/05/27 12:44:01;;;;;;;14.77;3.67;;;;;;;33.81;28.71;94878.16;5062705;28;20273;-83
2022/05/27 12:46:43;;;;;;;28.92;4.28;;;;;;;33.99;29.12;94875.75;5065397;28;20202;-82
2022/05/27 12:49:32;;;;;;;16.70;3.92;;;;;;;34.12;28.29;94871.75;5064410;28;20213;-83